createdAt,value
2018-09-17T00:00:51.836Z,4.50
2018-09-17T00:03:20.211Z,7.03
2018-09-17T00:05:48.575Z,8.37
2018-09-17T00:08:16.927Z,3.60
2018-09-17T00:10:45.309Z,2.73
2018-09-17T00:13:13.689Z,2.70
2018-09-17T00:15:42.060Z,3.42
2018-09-17T00:18:10.420Z,2.90
2018-09-17T00:20:38.873Z,2.30
2018-09-17T00:23:07.338Z,3.00
2018-09-17T00:25:35.737Z,3.60
2018-09-17T00:28:04.172Z,3.50
2018-09-17T00:30:32.545Z,2.90
2018-09-17T00:33:01.045Z,2.87
2018-09-17T00:35:29.452Z,2.90
2018-09-17T00:37:57.836Z,2.40
2018-09-17T00:40:26.274Z,2.60
2018-09-17T00:42:54.706Z,2.50
2018-09-17T00:45:23.200Z,2.30
2018-09-17T00:47:51.635Z,2.73
2018-09-17T00:50:20.035Z,3.12
2018-09-17T00:52:48.819Z,2.73
2018-09-17T00:55:17.215Z,2.80
2018-09-17T00:57:45.653Z,2.67
2018-09-17T01:00:13.988Z,3.60
2018-09-17T01:02:42.402Z,6.50
2018-09-17T01:05:10.735Z,6.07
2018-09-17T01:07:39.139Z,3.90
2018-09-17T01:10:07.614Z,2.93
2018-09-17T01:12:36.046Z,3.33
2018-09-17T01:15:07.407Z,2.80
2018-09-17T01:17:35.765Z,3.13
2018-09-17T01:20:04.153Z,3.27
2018-09-17T01:22:32.640Z,3.10
2018-09-17T01:25:01.059Z,3.80
2018-09-17T01:27:29.459Z,3.10
2018-09-17T01:29:57.873Z,2.63
2018-09-17T01:32:26.338Z,3.10
2018-09-17T01:34:54.903Z,3.17
2018-09-17T01:37:23.371Z,3.20
2018-09-17T01:39:51.769Z,3.33
2018-09-17T01:42:20.212Z,3.33
2018-09-17T01:44:48.629Z,2.93
2018-09-17T01:47:17.013Z,2.73
2018-09-17T01:49:45.517Z,3.13
2018-09-17T01:52:13.940Z,2.93
2018-09-17T01:54:42.325Z,3.20
2018-09-17T01:57:10.705Z,2.90
2018-09-17T01:59:39.109Z,3.43
2018-09-17T02:02:08.592Z,4.13
2018-09-17T02:04:37.105Z,3.37
2018-09-17T02:07:06.566Z,3.27
2018-09-17T02:09:39.282Z,2.80
2018-09-17T02:12:08.966Z,3.23
2018-09-17T02:14:37.554Z,3.20
2018-09-17T02:17:06.342Z,3.40
2018-09-17T02:19:35.104Z,3.80
2018-09-17T02:22:03.511Z,3.60
2018-09-17T02:24:31.979Z,3.80
2018-09-17T02:27:00.345Z,3.50
2018-09-17T02:29:28.784Z,3.20
2018-09-17T02:31:57.181Z,3.63
2018-09-17T02:34:25.840Z,3.10
2018-09-17T02:36:54.382Z,3.63
2018-09-17T02:39:22.920Z,3.53
2018-09-17T02:41:51.338Z,3.57
2018-09-17T02:44:19.748Z,3.70
2018-09-17T02:46:48.139Z,4.00
2018-09-17T02:49:16.716Z,3.80
2018-09-17T02:51:45.294Z,3.57
2018-09-17T02:54:13.725Z,4.00
2018-09-17T02:56:42.245Z,3.73
2018-09-17T02:59:10.727Z,3.40
2018-09-17T03:01:39.102Z,3.77
2018-09-17T03:04:07.493Z,4.20
2018-09-17T03:06:35.865Z,3.80
2018-09-17T03:09:05.105Z,4.00
2018-09-17T03:11:33.664Z,4.10
2018-09-17T03:14:02.110Z,3.53
2018-09-17T03:16:30.567Z,3.80
2018-09-17T03:18:59.147Z,4.13
2018-09-17T03:21:27.595Z,3.90
2018-09-17T03:23:56.035Z,3.90
2018-09-17T03:26:24.453Z,3.67
2018-09-17T03:28:52.934Z,3.47
2018-09-17T03:31:21.430Z,6.63
2018-09-17T03:33:49.890Z,7.10
2018-09-17T03:36:18.399Z,5.13
2018-09-17T03:38:48.226Z,4.03
2018-09-17T03:41:17.503Z,4.30
2018-09-17T03:43:47.627Z,4.20
2018-09-17T03:46:16.106Z,4.50
2018-09-17T03:48:44.521Z,4.33
2018-09-17T03:51:13.399Z,4.20
2018-09-17T03:53:42.180Z,3.97
2018-09-17T03:56:10.715Z,3.90
2018-09-17T03:58:39.055Z,3.73
2018-09-17T04:01:07.568Z,3.93
2018-09-17T04:03:36.079Z,4.33
2018-09-17T04:06:04.546Z,4.43
2018-09-17T04:08:33.761Z,4.33
2018-09-17T04:11:02.293Z,3.60
2018-09-17T04:13:30.791Z,4.20
2018-09-17T04:16:06.005Z,3.97
2018-09-17T04:18:34.391Z,3.83
2018-09-17T04:21:02.847Z,3.73
2018-09-17T04:23:34.710Z,4.07
2018-09-17T04:26:04.439Z,4.00
2018-09-17T04:28:34.294Z,6.80
2018-09-17T04:31:02.770Z,5.67
2018-09-17T04:33:34.375Z,4.20
2018-09-17T04:36:02.900Z,3.67
2018-09-17T04:38:31.265Z,4.03
2018-09-17T04:40:59.683Z,3.90
2018-09-17T04:43:28.035Z,3.87
2018-09-17T04:45:56.416Z,3.80
2018-09-17T04:48:24.789Z,3.77
2018-09-17T04:50:53.174Z,3.87
2018-09-17T04:53:21.626Z,3.67
2018-09-17T04:55:50.145Z,5.57
2018-09-17T04:58:18.546Z,4.27
2018-09-17T05:00:46.989Z,3.97
2018-09-17T05:03:15.512Z,4.10
2018-09-17T05:05:43.964Z,3.80
2018-09-17T05:08:12.404Z,4.13
2018-09-17T05:10:40.942Z,8.47
2018-09-17T05:13:09.440Z,5.17
2018-09-17T05:15:37.803Z,5.70
2018-09-17T05:18:06.295Z,4.90
2018-09-17T05:20:34.746Z,4.40
2018-09-17T05:23:03.098Z,4.70
2018-09-17T05:25:31.607Z,4.27
2018-09-17T05:28:00.052Z,4.57
2018-09-17T05:30:28.455Z,7.77
2018-09-17T05:32:56.846Z,4.23
2018-09-17T05:35:25.437Z,4.63
2018-09-17T05:37:53.906Z,4.00
2018-09-17T05:40:22.325Z,5.10
2018-09-17T05:42:50.743Z,4.33
2018-09-17T05:45:19.158Z,8.30
2018-09-17T05:47:47.688Z,4.27
2018-09-17T05:50:16.114Z,3.73
2018-09-17T05:52:44.568Z,4.10
2018-09-17T05:55:12.989Z,3.90
2018-09-17T05:57:41.381Z,3.97
2018-09-17T06:00:09.851Z,3.90
2018-09-17T06:02:38.361Z,4.20
2018-09-17T06:05:06.772Z,4.40
2018-09-17T06:07:35.159Z,3.40
2018-09-17T06:10:03.804Z,3.33
2018-09-17T06:12:32.187Z,5.60
2018-09-17T06:15:00.557Z,5.30
2018-09-17T06:17:29.021Z,4.83
2018-09-17T06:19:57.443Z,4.40
2018-09-17T06:22:25.915Z,4.30
2018-09-17T06:24:54.374Z,3.97
2018-09-17T06:27:22.778Z,4.30
2018-09-17T06:29:51.200Z,3.80
2018-09-17T06:32:19.668Z,4.50
2018-09-17T06:34:48.068Z,4.23
2018-09-17T06:37:16.488Z,3.93
2018-09-17T06:39:44.931Z,4.00
2018-09-17T06:42:13.437Z,4.07
2018-09-17T06:44:42.257Z,4.00
2018-09-17T06:47:10.722Z,3.40
2018-09-17T06:49:39.172Z,3.97
2018-09-17T06:52:07.677Z,2.50
2018-09-17T06:54:36.138Z,2.60
2018-09-17T06:57:04.867Z,3.27
2018-09-17T06:59:33.440Z,3.13
2018-09-17T07:02:02.112Z,3.13
2018-09-17T07:04:30.575Z,3.93
2018-09-17T07:06:58.983Z,3.10
2018-09-17T07:09:27.441Z,3.53
2018-09-17T07:11:55.848Z,4.63
2018-09-17T07:14:24.243Z,3.50
2018-09-17T07:16:52.608Z,3.00
2018-09-17T07:19:21.138Z,2.72
2018-09-17T07:21:49.631Z,3.20
2018-09-17T07:24:17.990Z,3.02
2018-09-17T07:26:46.398Z,2.98
2018-09-17T07:29:14.752Z,2.90
2018-09-17T07:31:43.230Z,2.77
2018-09-17T07:34:11.651Z,2.35
2018-09-17T07:36:40.035Z,3.02
2018-09-17T07:39:09.786Z,2.37
2018-09-17T07:41:38.231Z,2.40
2018-09-17T07:44:06.621Z,2.05
2018-09-17T07:46:35.225Z,2.40
2018-09-17T07:49:03.649Z,2.62
2018-09-17T07:51:32.038Z,2.40
2018-09-17T07:54:00.444Z,2.15
2018-09-17T07:56:29.242Z,1.62
2018-09-17T07:58:57.659Z,1.92
2018-09-17T08:01:26.300Z,1.80
2018-09-17T08:03:54.701Z,2.25
2018-09-17T08:06:23.069Z,2.65
2018-09-17T08:08:51.462Z,2.10
2018-09-17T08:11:19.956Z,1.50
2018-09-17T08:13:48.369Z,1.40
2018-09-17T08:16:16.809Z,1.57
2018-09-17T08:18:45.230Z,1.85
2018-09-17T08:21:13.681Z,1.27
2018-09-17T08:23:42.202Z,1.30
2018-09-17T08:26:10.606Z,1.30
2018-09-17T08:28:38.984Z,1.05
2018-09-17T08:31:07.358Z,1.15
2018-09-17T08:33:35.961Z,0.95
2018-09-17T08:36:04.341Z,0.90
2018-09-17T08:38:32.755Z,0.98
2018-09-17T08:41:01.144Z,0.88
2018-09-17T08:43:29.620Z,0.85
2018-09-17T08:45:58.041Z,1.05
2018-09-17T08:48:26.423Z,1.00
2018-09-17T08:50:54.807Z,0.90
2018-09-17T08:53:23.320Z,1.17
2018-09-17T08:55:57.032Z,1.00
2018-09-17T08:58:26.525Z,1.20
2018-09-17T09:00:55.931Z,1.05
2018-09-17T09:03:29.785Z,0.90
2018-09-17T09:06:03.539Z,0.88
2018-09-17T09:08:31.969Z,0.72
2018-09-17T09:11:05.746Z,0.90
2018-09-17T09:13:34.121Z,1.22
2018-09-17T09:16:02.502Z,1.27
2018-09-17T09:18:30.904Z,1.20
2018-09-17T09:20:59.266Z,1.40
2018-09-17T09:23:27.626Z,1.37
2018-09-17T09:25:56.047Z,1.10
2018-09-17T09:28:24.568Z,0.98
2018-09-17T09:30:53.145Z,1.10
2018-09-17T09:33:21.527Z,1.20
2018-09-17T09:35:49.894Z,0.93
2018-09-17T09:38:18.452Z,0.95
2018-09-17T09:40:46.916Z,1.20
2018-09-17T09:43:15.444Z,1.00
2018-09-17T09:45:43.828Z,0.60
2018-09-17T09:48:12.210Z,0.90
2018-09-17T09:50:40.692Z,1.17
2018-09-17T09:53:09.074Z,0.93
2018-09-17T09:55:37.505Z,0.80
2018-09-17T09:58:06.424Z,0.70
2018-09-17T10:00:40.251Z,0.98
2018-09-17T10:03:14.114Z,0.90
2018-09-17T10:05:42.516Z,1.35
2018-09-17T10:08:11.008Z,1.32
2018-09-17T10:10:44.808Z,0.80
2018-09-17T10:13:18.633Z,0.53
2018-09-17T10:15:55.320Z,1.12
2018-09-17T10:18:29.119Z,0.72
2018-09-17T10:20:57.704Z,1.00
2018-09-17T10:23:26.183Z,0.78
2018-09-17T10:25:54.746Z,4.47
2018-09-17T10:28:23.134Z,1.10
2018-09-17T10:30:51.545Z,1.75
2018-09-17T10:33:19.931Z,0.68
2018-09-17T10:35:48.335Z,1.02
2018-09-17T10:38:16.758Z,0.70
2018-09-17T10:40:45.194Z,0.68
2018-09-17T10:43:13.547Z,0.85
2018-09-17T10:45:41.960Z,0.40
2018-09-17T10:48:10.483Z,0.53
2018-09-17T10:50:38.833Z,0.70
2018-09-17T10:53:07.259Z,0.80
2018-09-17T10:55:35.623Z,0.70
2018-09-17T10:58:04.009Z,0.60
2018-09-17T11:00:32.488Z,1.62
2018-09-17T11:03:00.896Z,0.50
2018-09-17T11:05:29.355Z,0.57
2018-09-17T11:07:57.753Z,0.70
2018-09-17T11:10:26.197Z,0.85
2018-09-17T11:12:54.693Z,0.70
2018-09-17T11:15:27.285Z,0.60
2018-09-17T11:17:55.651Z,0.78
2018-09-17T11:20:24.025Z,0.90
2018-09-17T11:22:52.513Z,0.70
2018-09-17T11:25:20.913Z,0.80
2018-09-17T11:27:49.297Z,0.85
2018-09-17T11:30:17.687Z,0.90
2018-09-17T11:32:46.145Z,0.60
2018-09-17T11:35:14.503Z,0.80
2018-09-17T11:37:42.961Z,0.82
2018-09-17T11:40:11.371Z,0.60
2018-09-17T11:42:39.853Z,0.70
2018-09-17T11:45:08.297Z,0.98
2018-09-17T11:47:36.676Z,0.62
2018-09-17T11:50:05.167Z,0.57
2018-09-17T11:52:33.770Z,0.78
2018-09-17T11:55:09.045Z,1.32
2018-09-17T11:57:37.401Z,0.72
2018-09-17T12:00:05.847Z,0.88
2018-09-17T12:02:36.047Z,0.90
2018-09-17T12:05:06.141Z,0.65
2018-09-17T12:07:35.627Z,0.70
2018-09-17T12:10:04.418Z,0.68
2018-09-17T12:12:32.808Z,0.88
2018-09-17T12:15:01.282Z,0.70
2018-09-17T12:17:29.673Z,0.70
2018-09-17T12:19:58.139Z,0.57
2018-09-17T12:22:26.830Z,0.82
2018-09-17T12:24:55.349Z,0.80
2018-09-17T12:27:23.814Z,0.68
2018-09-17T12:29:58.892Z,1.00
2018-09-17T12:32:27.257Z,0.70
2018-09-17T12:34:55.670Z,0.68
2018-09-17T12:37:24.033Z,0.88
2018-09-17T12:39:52.467Z,0.72
2018-09-17T12:42:20.824Z,0.80
2018-09-17T12:44:49.260Z,0.62
2018-09-17T12:47:17.631Z,0.57
2018-09-17T12:49:46.003Z,0.65
2018-09-17T12:52:14.362Z,0.95
2018-09-17T12:54:42.729Z,0.80
2018-09-17T12:57:11.230Z,0.75
2018-09-17T12:59:39.653Z,0.70
2018-09-17T13:02:08.028Z,0.57
2018-09-17T13:04:36.406Z,0.78
2018-09-17T13:07:05.026Z,0.80
2018-09-17T13:09:33.395Z,0.60
2018-09-17T13:12:01.780Z,0.70
2018-09-17T13:14:30.149Z,0.78
2018-09-17T13:16:58.565Z,0.80
2018-09-17T13:19:27.037Z,0.80
2018-09-17T13:21:55.482Z,0.60
2018-09-17T13:24:23.889Z,0.75
2018-09-17T13:26:52.268Z,0.72
2018-09-17T13:29:20.655Z,0.37
2018-09-17T13:31:49.165Z,0.60
2018-09-17T13:34:17.857Z,0.78
2018-09-17T13:36:46.305Z,0.50
2018-09-17T13:39:14.748Z,0.72
2018-09-17T13:41:43.263Z,0.50
2018-09-17T13:44:11.678Z,0.60
2018-09-17T13:46:40.087Z,0.50
2018-09-17T13:49:08.482Z,0.42
2018-09-17T13:51:36.998Z,0.70
2018-09-17T13:54:05.437Z,0.50
2018-09-17T13:56:33.929Z,0.50
2018-09-17T13:59:02.357Z,0.50
2018-09-17T14:01:30.828Z,0.80
2018-09-17T14:03:59.243Z,0.90
2018-09-17T14:06:27.688Z,0.60
2018-09-17T14:08:56.175Z,0.40
2018-09-17T14:11:24.596Z,0.62
2018-09-17T14:13:53.003Z,0.53
2018-09-17T14:16:26.979Z,0.75
2018-09-17T14:18:55.405Z,0.50
2018-09-17T14:21:23.789Z,0.70
2018-09-17T14:23:52.181Z,1.00
2018-09-17T14:26:20.669Z,0.70
2018-09-17T14:28:49.220Z,0.70
2018-09-17T14:31:21.919Z,1.80
2018-09-17T14:33:50.342Z,0.55
2018-09-17T14:37:47.991Z,0.50
2018-09-17T14:40:16.370Z,0.68
2018-09-17T14:42:44.758Z,0.60
2018-09-17T14:45:13.276Z,0.70
2018-09-17T14:47:41.700Z,0.93
2018-09-17T14:50:11.619Z,0.60
2018-09-17T14:52:40.000Z,0.62
2018-09-17T14:55:08.472Z,0.85
2018-09-17T14:57:36.908Z,0.80
2018-09-17T15:00:05.278Z,0.60
2018-09-17T15:02:33.741Z,0.70
2018-09-17T15:05:02.164Z,0.68
2018-09-17T15:07:30.644Z,0.88
2018-09-17T15:09:59.651Z,0.70
2018-09-17T15:12:28.129Z,0.60
2018-09-17T15:14:56.639Z,0.40
2018-09-17T15:17:24.981Z,0.60
2018-09-17T15:19:53.378Z,0.82
2018-09-17T15:22:21.836Z,0.60
2018-09-17T15:24:50.551Z,1.15
2018-09-17T15:27:18.997Z,0.42
2018-09-17T15:29:48.175Z,1.82
2018-09-17T15:32:16.700Z,0.98
2018-09-17T15:34:44.962Z,1.12
2018-09-17T15:37:13.507Z,0.62
2018-09-17T15:39:41.898Z,0.75
2018-09-17T15:42:10.267Z,0.80
2018-09-17T15:44:38.611Z,4.15
2018-09-17T15:47:07.539Z,0.90
2018-09-17T15:49:35.919Z,0.98
2018-09-17T15:52:05.398Z,0.57
2018-09-17T15:54:33.816Z,0.85
2018-09-17T15:57:02.269Z,0.60
2018-09-17T15:59:30.656Z,0.85
2018-09-17T16:01:59.021Z,0.70
2018-09-17T16:04:27.428Z,0.60
2018-09-17T16:06:55.882Z,1.57
2018-09-17T16:09:24.352Z,0.82
2018-09-17T16:11:53.115Z,1.20
2018-09-17T16:14:22.316Z,0.75
2018-09-17T16:16:50.736Z,0.60
2018-09-17T16:19:19.150Z,0.95
2018-09-17T16:21:47.575Z,0.93
2018-09-17T16:24:16.012Z,0.93
2018-09-17T16:26:44.439Z,0.60
2018-09-17T16:29:12.854Z,1.00
2018-09-17T16:31:41.222Z,1.47
2018-09-17T16:34:09.739Z,1.40
2018-09-17T16:36:38.576Z,0.70
2018-09-17T16:39:08.592Z,1.02
2018-09-17T16:41:37.001Z,0.95
2018-09-17T16:44:05.417Z,1.30
2018-09-17T16:46:34.440Z,1.05
2018-09-17T16:49:03.035Z,1.00
2018-09-17T16:51:31.575Z,0.70
2018-09-17T16:54:00.242Z,1.00
2018-09-17T16:56:28.925Z,1.17
2018-09-17T16:58:57.498Z,1.55
2018-09-17T17:01:25.901Z,0.90
2018-09-17T17:03:55.278Z,1.20
2018-09-17T17:06:23.871Z,1.30
2018-09-17T17:08:52.270Z,0.88
2018-09-17T17:11:20.833Z,1.42
2018-09-17T17:13:49.081Z,1.10
2018-09-17T17:16:17.525Z,1.45
2018-09-17T17:18:45.948Z,1.15
2018-09-17T17:21:14.349Z,1.32
2018-09-17T17:23:42.726Z,3.10
2018-09-17T17:26:11.171Z,2.30
2018-09-17T17:28:40.145Z,2.20
2018-09-17T17:31:08.579Z,1.92
2018-09-17T17:33:36.957Z,2.83
2018-09-17T17:36:05.398Z,2.50
2018-09-17T17:38:33.825Z,2.25
2018-09-17T17:41:02.269Z,2.00
2018-09-17T17:43:30.654Z,2.20
2018-09-17T17:45:59.232Z,2.35
2018-09-17T17:48:27.650Z,2.20
2018-09-17T17:50:56.099Z,2.27
2018-09-17T17:53:24.525Z,2.25
2018-09-17T17:55:52.964Z,2.62
2018-09-17T17:58:21.404Z,2.72
2018-09-17T18:00:49.828Z,2.95
2018-09-17T18:03:18.269Z,2.77
2018-09-17T18:05:46.881Z,2.67
2018-09-17T18:08:15.263Z,2.70
2018-09-17T18:10:44.049Z,2.65
2018-09-17T18:13:12.488Z,3.15
2018-09-17T18:15:40.955Z,3.80
2018-09-17T18:18:09.372Z,3.35
2018-09-17T18:20:37.814Z,3.70
2018-09-17T18:23:06.561Z,3.70
2018-09-17T18:25:34.986Z,3.45
2018-09-17T18:28:03.459Z,3.50
2018-09-17T18:30:31.872Z,3.12
2018-09-17T18:33:00.308Z,2.85
2018-09-17T18:35:28.706Z,2.98
2018-09-17T18:37:57.143Z,3.02
2018-09-17T18:40:25.575Z,2.77
2018-09-17T18:42:54.013Z,2.37
2018-09-17T18:45:22.562Z,3.40
2018-09-17T18:47:50.987Z,3.25
2018-09-17T18:50:19.422Z,3.10
2018-09-17T18:52:47.883Z,2.30
2018-09-17T18:55:16.363Z,2.55
2018-09-17T18:57:44.759Z,3.25
2018-09-17T19:00:13.191Z,3.50
2018-09-17T19:02:41.622Z,4.12
2018-09-17T19:05:10.064Z,4.00
2018-09-17T19:07:38.537Z,3.60
2018-09-17T19:10:06.964Z,4.08
2018-09-17T19:12:35.430Z,4.28
2018-09-17T19:15:09.228Z,3.72
2018-09-17T19:17:41.898Z,2.52
2018-09-17T19:20:11.596Z,2.58
2018-09-17T19:22:45.574Z,2.98
2018-09-17T19:25:15.158Z,2.80
2018-09-17T19:27:48.970Z,3.15
2018-09-17T19:30:17.690Z,3.90
2018-09-17T19:32:46.045Z,3.20
2018-09-17T19:35:14.531Z,3.72
2018-09-17T19:37:48.358Z,3.00
2018-09-17T19:40:21.421Z,3.45
2018-09-17T19:42:50.444Z,3.40
2018-09-17T19:45:24.332Z,3.40
2018-09-17T19:47:53.185Z,4.35
2018-09-17T19:50:26.901Z,4.03
2018-09-17T19:52:55.355Z,3.83
2018-09-17T19:55:23.866Z,3.35
2018-09-17T19:57:57.661Z,4.47
2018-09-17T20:00:26.160Z,3.80
2018-09-17T20:02:54.506Z,3.98
2018-09-17T20:05:28.373Z,6.30
2018-09-17T20:07:56.802Z,6.08
2018-09-17T20:10:25.248Z,6.55
2018-09-17T20:12:53.679Z,5.75
2018-09-17T20:15:22.042Z,6.00
2018-09-17T20:17:50.455Z,6.10
2018-09-17T20:20:18.881Z,6.37
2018-09-17T20:22:47.343Z,4.78
2018-09-17T20:25:15.716Z,3.75
2018-09-17T20:27:44.127Z,3.35
2018-09-17T20:30:12.501Z,3.87
2018-09-17T20:32:40.935Z,4.08
2018-09-17T20:35:09.372Z,5.08
2018-09-17T20:37:37.763Z,5.40
2018-09-17T20:40:06.143Z,5.45
2018-09-17T20:42:34.534Z,5.65
2018-09-17T20:45:02.941Z,4.25
2018-09-17T20:47:31.367Z,5.03
2018-09-17T20:49:59.799Z,5.92
2018-09-17T20:52:28.236Z,6.65
2018-09-17T20:54:56.892Z,5.60
2018-09-17T20:57:25.297Z,6.15
2018-09-17T20:59:53.686Z,5.47
2018-09-17T21:02:22.131Z,6.05
2018-09-17T21:04:50.615Z,6.05
2018-09-17T21:07:19.157Z,5.72
2018-09-17T21:09:47.496Z,5.60
2018-09-17T21:12:15.955Z,4.35
2018-09-17T21:14:44.381Z,4.25
2018-09-17T21:17:12.814Z,4.50
2018-09-17T21:19:41.272Z,4.50
2018-09-17T21:22:09.669Z,4.03
2018-09-17T21:24:38.072Z,3.98
2018-09-17T21:27:06.140Z,3.65
2018-09-17T21:29:34.539Z,3.80
2018-09-17T21:32:03.105Z,3.60
2018-09-17T21:34:31.618Z,3.55
2018-09-17T21:37:00.156Z,4.47
2018-09-17T21:39:28.460Z,3.58
2018-09-17T21:41:56.847Z,4.03
2018-09-17T21:44:25.262Z,2.65
2018-09-17T21:46:53.649Z,4.80
2018-09-17T21:49:21.997Z,4.20
2018-09-17T21:51:50.703Z,3.17
2018-09-17T21:54:19.092Z,2.67
2018-09-17T21:56:47.496Z,3.70
2018-09-17T21:59:15.905Z,3.40
2018-09-17T22:01:44.316Z,2.80
2018-09-17T22:04:12.801Z,2.45
2018-09-17T22:06:41.177Z,2.58
2018-09-17T22:09:09.540Z,2.47
2018-09-17T22:11:38.003Z,3.00
2018-09-17T22:14:06.431Z,3.47
2018-09-17T22:16:35.074Z,3.15
2018-09-17T22:19:03.402Z,2.45
2018-09-17T22:21:31.903Z,2.80
2018-09-17T22:24:00.373Z,3.12
2018-09-17T22:26:28.747Z,2.80
2018-09-17T22:28:57.156Z,3.22
2018-09-17T22:31:25.736Z,2.58
2018-09-17T22:33:54.170Z,2.72
2018-09-17T22:36:22.624Z,3.20
2018-09-17T22:38:51.041Z,2.90
2018-09-17T22:41:19.404Z,3.27
2018-09-17T22:43:48.120Z,3.77
2018-09-17T22:46:16.634Z,3.80
2018-09-17T22:48:45.069Z,4.03
2018-09-17T22:51:13.471Z,3.90
2018-09-17T22:53:41.837Z,3.95
2018-09-17T22:56:10.323Z,4.05
2018-09-17T22:58:38.858Z,5.67
2018-09-17T23:01:07.265Z,4.12
2018-09-17T23:03:35.685Z,3.62
2018-09-17T23:06:04.051Z,3.65
2018-09-17T23:08:32.432Z,3.90
2018-09-17T23:11:00.949Z,3.25
2018-09-17T23:13:29.378Z,3.70
2018-09-17T23:15:57.857Z,3.75
2018-09-17T23:18:26.233Z,3.92
2018-09-17T23:20:54.652Z,3.30
2018-09-17T23:23:23.069Z,3.47
2018-09-17T23:25:51.613Z,3.65
2018-09-17T23:28:20.061Z,3.25
2018-09-17T23:30:48.690Z,3.12
2018-09-17T23:33:17.130Z,3.52
2018-09-17T23:35:45.522Z,3.22
2018-09-17T23:38:13.942Z,3.87
2018-09-17T23:40:42.435Z,3.83
2018-09-17T23:43:10.817Z,3.58
2018-09-17T23:45:39.199Z,4.33
2018-09-17T23:48:07.627Z,4.35
2018-09-17T23:50:36.084Z,3.55
2018-09-17T23:53:04.493Z,3.77
2018-09-17T23:55:32.849Z,2.95
2018-09-17T23:58:01.268Z,3.72
